sensor_id;sensor_type;location;lat;lon;timestamp;P1;durP1;ratioP1;P2;durP2;ratioP2
29662;SDS011;16578;53.266;7.920;2023-07-31T00:01:39;6.13;;;2.65;;
29662;SDS011;16578;53.266;7.920;2023-07-31T00:04:04;4.65;;;2.72;;
29662;SDS011;16578;53.266;7.920;2023-07-31T00:06:30;5.15;;;2.60;;
29662;SDS011;16578;53.266;7.920;2023-07-31T00:08:55;3.83;;;2.72;;
29662;SDS011;16578;53.266;7.920;2023-07-31T00:11:21;5.13;;;2.67;;
29662;SDS011;16578;53.266;7.920;2023-07-31T00:13:47;5.82;;;2.50;;
29662;SDS011;16578;53.266;7.920;2023-07-31T00:16:12;4.13;;;2.58;;
29662;SDS011;16578;53.266;7.920;2023-07-31T00:18:38;4.60;;;2.53;;
29662;SDS011;16578;53.266;7.920;2023-07-31T00:21:04;6.20;;;2.97;;
29662;SDS011;16578;53.266;7.920;2023-07-31T00:23:29;5.45;;;2.50;;
29662;SDS011;16578;53.266;7.920;2023-07-31T00:25:55;2.88;;;2.35;;
29662;SDS011;16578;53.266;7.920;2023-07-31T00:28:20;5.65;;;2.42;;
29662;SDS011;16578;53.266;7.920;2023-07-31T00:30:46;3.97;;;2.38;;
29662;SDS011;16578;53.266;7.920;2023-07-31T00:33:11;4.10;;;2.42;;
29662;SDS011;16578;53.266;7.920;2023-07-31T00:35:37;4.45;;;2.40;;
29662;SDS011;16578;53.266;7.920;2023-07-31T00:38:02;3.67;;;2.10;;
29662;SDS011;16578;53.266;7.920;2023-07-31T00:40:28;2.83;;;2.08;;
29662;SDS011;16578;53.266;7.920;2023-07-31T00:42:53;2.75;;;1.77;;
29662;SDS011;16578;53.266;7.920;2023-07-31T00:45:19;4.03;;;1.90;;
29662;SDS011;16578;53.266;7.920;2023-07-31T00:47:47;6.75;;;2.33;;
29662;SDS011;16578;53.266;7.920;2023-07-31T00:50:13;3.97;;;2.53;;
29662;SDS011;16578;53.266;7.920;2023-07-31T00:52:39;2.55;;;2.00;;
29662;SDS011;16578;53.266;7.920;2023-07-31T00:55:05;3.00;;;2.00;;
29662;SDS011;16578;53.266;7.920;2023-07-31T00:57:31;4.75;;;2.38;;
29662;SDS011;16578;53.266;7.920;2023-07-31T00:59:58;2.88;;;1.95;;
29662;SDS011;16578;53.266;7.920;2023-07-31T01:02:24;2.88;;;2.17;;
29662;SDS011;16578;53.266;7.920;2023-07-31T01:04:49;2.10;;;1.70;;
29662;SDS011;16578;53.266;7.920;2023-07-31T01:07:31;3.63;;;2.05;;
29662;SDS011;16578;53.266;7.920;2023-07-31T01:10:11;2.25;;;1.85;;
29662;SDS011;16578;53.266;7.920;2023-07-31T01:15:15;3.20;;;1.77;;
29662;SDS011;16578;53.266;7.920;2023-07-31T01:17:42;2.58;;;1.90;;
29662;SDS011;16578;53.266;7.920;2023-07-31T01:20:10;2.53;;;1.85;;
29662;SDS011;16578;53.266;7.920;2023-07-31T01:27:50;5.03;;;2.33;;
29662;SDS011;16578;53.266;7.920;2023-07-31T01:30:25;3.20;;;2.10;;
29662;SDS011;16578;53.266;7.920;2023-07-31T01:32:53;2.70;;;1.90;;
29662;SDS011;16578;53.266;7.920;2023-07-31T01:35:21;2.80;;;2.17;;
29662;SDS011;16578;53.266;7.920;2023-07-31T01:37:46;2.15;;;1.95;;
29662;SDS011;16578;53.266;7.920;2023-07-31T01:40:12;2.58;;;1.77;;
29662;SDS011;16578;53.266;7.920;2023-07-31T01:42:37;2.03;;;1.67;;
29662;SDS011;16578;53.266;7.920;2023-07-31T01:45:03;1.88;;;1.77;;
29662;SDS011;16578;53.266;7.920;2023-07-31T01:47:29;2.28;;;1.80;;
29662;SDS011;16578;53.266;7.920;2023-07-31T01:49:54;3.25;;;1.80;;
29662;SDS011;16578;53.266;7.920;2023-07-31T01:52:20;2.83;;;1.60;;
29662;SDS011;16578;53.266;7.920;2023-07-31T01:54:46;1.90;;;1.75;;
29662;SDS011;16578;53.266;7.920;2023-07-31T01:57:11;2.58;;;1.83;;
29662;SDS011;16578;53.266;7.920;2023-07-31T01:59:37;2.53;;;1.80;;
29662;SDS011;16578;53.266;7.920;2023-07-31T02:02:02;2.00;;;1.40;;
29662;SDS011;16578;53.266;7.920;2023-07-31T02:04:28;1.95;;;1.67;;
29662;SDS011;16578;53.266;7.920;2023-07-31T02:06:53;2.35;;;1.40;;
29662;SDS011;16578;53.266;7.920;2023-07-31T02:09:19;3.30;;;1.38;;
29662;SDS011;16578;53.266;7.920;2023-07-31T02:11:44;2.20;;;1.65;;
29662;SDS011;16578;53.266;7.920;2023-07-31T02:14:10;4.00;;;1.83;;
29662;SDS011;16578;53.266;7.920;2023-07-31T02:16:36;2.25;;;1.70;;
29662;SDS011;16578;53.266;7.920;2023-07-31T02:19:01;2.08;;;1.80;;
29662;SDS011;16578;53.266;7.920;2023-07-31T02:21:27;2.60;;;1.80;;
29662;SDS011;16578;53.266;7.920;2023-07-31T02:23:52;2.30;;;1.48;;
29662;SDS011;16578;53.266;7.920;2023-07-31T02:26:18;1.58;;;1.48;;
29662;SDS011;16578;53.266;7.920;2023-07-31T02:28:43;4.35;;;1.80;;
29662;SDS011;16578;53.266;7.920;2023-07-31T02:31:09;2.22;;;1.80;;
29662;SDS011;16578;53.266;7.920;2023-07-31T02:33:34;2.05;;;1.60;;
29662;SDS011;16578;53.266;7.920;2023-07-31T02:36:00;3.38;;;1.75;;
29662;SDS011;16578;53.266;7.920;2023-07-31T02:38:26;2.60;;;1.63;;
29662;SDS011;16578;53.266;7.920;2023-07-31T02:40:51;2.75;;;1.83;;
29662;SDS011;16578;53.266;7.920;2023-07-31T02:43:17;2.33;;;1.92;;
29662;SDS011;16578;53.266;7.920;2023-07-31T02:45:42;2.88;;;1.60;;
29662;SDS011;16578;53.266;7.920;2023-07-31T02:48:08;2.00;;;1.70;;
29662;SDS011;16578;53.266;7.920;2023-07-31T02:50:33;2.75;;;1.70;;
29662;SDS011;16578;53.266;7.920;2023-07-31T02:52:59;2.50;;;1.50;;
29662;SDS011;16578;53.266;7.920;2023-07-31T02:55:24;2.20;;;1.70;;
29662;SDS011;16578;53.266;7.920;2023-07-31T02:57:50;2.60;;;1.80;;
29662;SDS011;16578;53.266;7.920;2023-07-31T03:00:17;2.88;;;1.65;;
29662;SDS011;16578;53.266;7.920;2023-07-31T03:02:43;2.05;;;1.52;;
29662;SDS011;16578;53.266;7.920;2023-07-31T03:05:08;2.25;;;1.67;;
29662;SDS011;16578;53.266;7.920;2023-07-31T03:07:34;1.80;;;1.70;;
29662;SDS011;16578;53.266;7.920;2023-07-31T03:09:59;2.75;;;2.03;;
29662;SDS011;16578;53.266;7.920;2023-07-31T03:12:25;1.75;;;1.55;;
29662;SDS011;16578;53.266;7.920;2023-07-31T03:14:50;2.40;;;1.73;;
29662;SDS011;16578;53.266;7.920;2023-07-31T03:17:16;1.95;;;1.70;;
29662;SDS011;16578;53.266;7.920;2023-07-31T03:19:41;2.05;;;1.67;;
29662;SDS011;16578;53.266;7.920;2023-07-31T03:22:07;1.83;;;1.70;;
29662;SDS011;16578;53.266;7.920;2023-07-31T03:24:32;1.50;;;1.40;;
29662;SDS011;16578;53.266;7.920;2023-07-31T03:26:58;1.83;;;1.38;;
29662;SDS011;16578;53.266;7.920;2023-07-31T03:29:23;2.55;;;1.45;;
29662;SDS011;16578;53.266;7.920;2023-07-31T03:31:49;1.42;;;1.33;;
29662;SDS011;16578;53.266;7.920;2023-07-31T03:34:14;1.55;;;1.45;;
29662;SDS011;16578;53.266;7.920;2023-07-31T03:36:40;1.70;;;1.55;;
29662;SDS011;16578;53.266;7.920;2023-07-31T03:39:05;3.17;;;1.83;;
29662;SDS011;16578;53.266;7.920;2023-07-31T03:41:31;3.88;;;1.30;;
29662;SDS011;16578;53.266;7.920;2023-07-31T03:43:56;1.63;;;1.50;;
29662;SDS011;16578;53.266;7.920;2023-07-31T03:46:22;1.92;;;1.23;;
29662;SDS011;16578;53.266;7.920;2023-07-31T03:48:49;1.30;;;1.20;;
29662;SDS011;16578;53.266;7.920;2023-07-31T03:51:14;1.30;;;1.20;;
29662;SDS011;16578;53.266;7.920;2023-07-31T03:53:40;1.40;;;1.30;;
29662;SDS011;16578;53.266;7.920;2023-07-31T03:56:06;1.80;;;1.33;;
29662;SDS011;16578;53.266;7.920;2023-07-31T03:58:31;1.15;;;0.95;;
29662;SDS011;16578;53.266;7.920;2023-07-31T04:00:57;1.20;;;1.10;;
29662;SDS011;16578;53.266;7.920;2023-07-31T04:03:22;1.20;;;1.10;;
29662;SDS011;16578;53.266;7.920;2023-07-31T04:05:48;1.80;;;1.05;;
29662;SDS011;16578;53.266;7.920;2023-07-31T04:08:13;0.90;;;0.90;;
29662;SDS011;16578;53.266;7.920;2023-07-31T04:10:39;1.38;;;1.10;;
29662;SDS011;16578;53.266;7.920;2023-07-31T04:13:05;0.93;;;0.90;;
29662;SDS011;16578;53.266;7.920;2023-07-31T04:15:30;0.80;;;0.80;;
29662;SDS011;16578;53.266;7.920;2023-07-31T04:17:56;1.27;;;1.17;;
29662;SDS011;16578;53.266;7.920;2023-07-31T04:20:21;2.25;;;1.10;;
29662;SDS011;16578;53.266;7.920;2023-07-31T04:22:47;1.02;;;0.98;;
29662;SDS011;16578;53.266;7.920;2023-07-31T04:25:13;1.02;;;0.93;;
29662;SDS011;16578;53.266;7.920;2023-07-31T04:27:39;0.68;;;0.68;;
29662;SDS011;16578;53.266;7.920;2023-07-31T04:30:05;2.42;;;0.73;;
29662;SDS011;16578;53.266;7.920;2023-07-31T04:32:31;0.60;;;0.60;;
29662;SDS011;16578;53.266;7.920;2023-07-31T04:34:56;0.50;;;0.50;;
29662;SDS011;16578;53.266;7.920;2023-07-31T04:37:22;0.63;;;0.63;;
29662;SDS011;16578;53.266;7.920;2023-07-31T04:39:47;0.60;;;0.60;;
29662;SDS011;16578;53.266;7.920;2023-07-31T04:42:13;1.75;;;0.77;;
29662;SDS011;16578;53.266;7.920;2023-07-31T04:44:39;0.65;;;0.65;;
29662;SDS011;16578;53.266;7.920;2023-07-31T04:47:05;1.08;;;0.70;;
29662;SDS011;16578;53.266;7.920;2023-07-31T04:49:31;1.02;;;0.85;;
29662;SDS011;16578;53.266;7.920;2023-07-31T04:51:57;0.65;;;0.50;;
29662;SDS011;16578;53.266;7.920;2023-07-31T04:54:22;0.70;;;0.70;;
29662;SDS011;16578;53.266;7.920;2023-07-31T04:56:48;0.52;;;0.50;;
29662;SDS011;16578;53.266;7.920;2023-07-31T04:59:14;0.45;;;0.45;;
29662;SDS011;16578;53.266;7.920;2023-07-31T05:01:39;4.88;;;0.60;;
29662;SDS011;16578;53.266;7.920;2023-07-31T05:04:05;0.57;;;0.50;;
29662;SDS011;16578;53.266;7.920;2023-07-31T05:06:30;0.35;;;0.30;;
29662;SDS011;16578;53.266;7.920;2023-07-31T05:08:56;0.63;;;0.50;;
29662;SDS011;16578;53.266;7.920;2023-07-31T05:11:21;0.98;;;0.43;;
29662;SDS011;16578;53.266;7.920;2023-07-31T05:13:47;0.70;;;0.50;;
29662;SDS011;16578;53.266;7.920;2023-07-31T05:16:12;0.32;;;0.32;;
29662;SDS011;16578;53.266;7.920;2023-07-31T05:18:38;0.50;;;0.50;;
29662;SDS011;16578;53.266;7.920;2023-07-31T05:21:03;0.30;;;0.30;;
29662;SDS011;16578;53.266;7.920;2023-07-31T05:23:29;0.65;;;0.43;;
29662;SDS011;16578;53.266;7.920;2023-07-31T05:26:01;0.88;;;0.30;;
29662;SDS011;16578;53.266;7.920;2023-07-31T05:28:28;0.30;;;0.30;;
29662;SDS011;16578;53.266;7.920;2023-07-31T05:30:58;0.55;;;0.55;;
29662;SDS011;16578;53.266;7.920;2023-07-31T05:33:27;0.43;;;0.43;;
29662;SDS011;16578;53.266;7.920;2023-07-31T05:35:53;1.33;;;0.60;;
29662;SDS011;16578;53.266;7.920;2023-07-31T05:38:18;0.45;;;0.45;;
29662;SDS011;16578;53.266;7.920;2023-07-31T05:40:44;0.65;;;0.50;;
29662;SDS011;16578;53.266;7.920;2023-07-31T05:43:09;0.50;;;0.50;;
29662;SDS011;16578;53.266;7.920;2023-07-31T05:45:35;0.65;;;0.65;;
29662;SDS011;16578;53.266;7.920;2023-07-31T05:48:01;0.70;;;0.70;;
29662;SDS011;16578;53.266;7.920;2023-07-31T05:50:27;1.45;;;0.68;;
29662;SDS011;16578;53.266;7.920;2023-07-31T05:52:53;0.98;;;0.98;;
29662;SDS011;16578;53.266;7.920;2023-07-31T05:55:19;0.70;;;0.70;;
29662;SDS011;16578;53.266;7.920;2023-07-31T05:57:44;1.58;;;0.93;;
29662;SDS011;16578;53.266;7.920;2023-07-31T06:00:11;0.70;;;0.70;;
29662;SDS011;16578;53.266;7.920;2023-07-31T06:02:37;1.00;;;0.93;;
29662;SDS011;16578;53.266;7.920;2023-07-31T06:05:03;0.68;;;0.60;;
29662;SDS011;16578;53.266;7.920;2023-07-31T06:07:31;1.08;;;0.90;;
29662;SDS011;16578;53.266;7.920;2023-07-31T06:09:57;0.90;;;0.90;;
29662;SDS011;16578;53.266;7.920;2023-07-31T06:12:28;1.52;;;1.00;;
29662;SDS011;16578;53.266;7.920;2023-07-31T06:14:53;0.68;;;0.68;;
29662;SDS011;16578;53.266;7.920;2023-07-31T06:17:19;1.42;;;0.70;;
29662;SDS011;16578;53.266;7.920;2023-07-31T06:19:46;1.08;;;0.80;;
29662;SDS011;16578;53.266;7.920;2023-07-31T06:22:11;0.95;;;0.88;;
29662;SDS011;16578;53.266;7.920;2023-07-31T06:24:37;2.22;;;1.00;;
29662;SDS011;16578;53.266;7.920;2023-07-31T06:27:03;1.75;;;0.80;;
29662;SDS011;16578;53.266;7.920;2023-07-31T06:29:29;0.70;;;0.70;;
29662;SDS011;16578;53.266;7.920;2023-07-31T06:31:55;0.50;;;0.50;;
29662;SDS011;16578;53.266;7.920;2023-07-31T06:34:20;1.02;;;0.60;;
29662;SDS011;16578;53.266;7.920;2023-07-31T06:36:46;0.50;;;0.50;;
29662;SDS011;16578;53.266;7.920;2023-07-31T06:39:11;0.68;;;0.52;;
29662;SDS011;16578;53.266;7.920;2023-07-31T06:41:38;0.57;;;0.50;;
29662;SDS011;16578;53.266;7.920;2023-07-31T06:44:03;0.57;;;0.57;;
29662;SDS011;16578;53.266;7.920;2023-07-31T06:46:29;0.88;;;0.60;;
29662;SDS011;16578;53.266;7.920;2023-07-31T06:48:54;1.00;;;0.52;;
29662;SDS011;16578;53.266;7.920;2023-07-31T06:51:20;0.45;;;0.45;;
29662;SDS011;16578;53.266;7.920;2023-07-31T06:53:45;0.93;;;0.57;;
29662;SDS011;16578;53.266;7.920;2023-07-31T06:56:11;0.57;;;0.30;;
29662;SDS011;16578;53.266;7.920;2023-07-31T06:58:37;0.50;;;0.50;;
29662;SDS011;16578;53.266;7.920;2023-07-31T07:01:02;0.50;;;0.30;;
29662;SDS011;16578;53.266;7.920;2023-07-31T07:03:28;0.40;;;0.40;;
29662;SDS011;16578;53.266;7.920;2023-07-31T07:05:54;0.25;;;0.22;;
29662;SDS011;16578;53.266;7.920;2023-07-31T07:08:20;0.55;;;0.40;;
29662;SDS011;16578;53.266;7.920;2023-07-31T07:10:46;0.40;;;0.30;;
29662;SDS011;16578;53.266;7.920;2023-07-31T07:13:12;0.28;;;0.28;;
29662;SDS011;16578;53.266;7.920;2023-07-31T07:15:38;0.30;;;0.30;;
29662;SDS011;16578;53.266;7.920;2023-07-31T07:18:04;0.65;;;0.22;;
29662;SDS011;16578;53.266;7.920;2023-07-31T07:20:29;0.20;;;0.20;;
29662;SDS011;16578;53.266;7.920;2023-07-31T07:22:55;0.25;;;0.25;;
29662;SDS011;16578;53.266;7.920;2023-07-31T07:25:20;0.85;;;0.22;;
29662;SDS011;16578;53.266;7.920;2023-07-31T07:27:46;0.20;;;0.20;;
29662;SDS011;16578;53.266;7.920;2023-07-31T07:30:12;0.28;;;0.28;;
29662;SDS011;16578;53.266;7.920;2023-07-31T07:32:39;0.57;;;0.30;;
29662;SDS011;16578;53.266;7.920;2023-07-31T07:35:04;0.38;;;0.38;;
29662;SDS011;16578;53.266;7.920;2023-07-31T07:37:31;0.35;;;0.35;;
29662;SDS011;16578;53.266;7.920;2023-07-31T07:39:56;0.40;;;0.40;;
29662;SDS011;16578;53.266;7.920;2023-07-31T07:42:22;0.32;;;0.32;;
29662;SDS011;16578;53.266;7.920;2023-07-31T07:44:48;0.43;;;0.40;;
29662;SDS011;16578;53.266;7.920;2023-07-31T07:47:13;0.85;;;0.70;;
29662;SDS011;16578;53.266;7.920;2023-07-31T07:49:39;1.23;;;0.80;;
29662;SDS011;16578;53.266;7.920;2023-07-31T07:52:04;1.10;;;0.90;;
29662;SDS011;16578;53.266;7.920;2023-07-31T07:54:30;2.83;;;1.13;;
29662;SDS011;16578;53.266;7.920;2023-07-31T07:56:56;2.30;;;1.48;;
29662;SDS011;16578;53.266;7.920;2023-07-31T07:59:22;4.60;;;2.22;;
29662;SDS011;16578;53.266;7.920;2023-07-31T08:01:47;3.65;;;2.33;;
29662;SDS011;16578;53.266;7.920;2023-07-31T08:04:13;3.50;;;2.22;;
29662;SDS011;16578;53.266;7.920;2023-07-31T08:06:38;7.25;;;3.20;;
29662;SDS011;16578;53.266;7.920;2023-07-31T08:09:04;9.82;;;4.25;;
29662;SDS011;16578;53.266;7.920;2023-07-31T08:11:34;6.50;;;3.88;;
29662;SDS011;16578;53.266;7.920;2023-07-31T08:14:00;6.22;;;4.22;;
29662;SDS011;16578;53.266;7.920;2023-07-31T08:16:25;9.32;;;5.00;;
29662;SDS011;16578;53.266;7.920;2023-07-31T08:18:51;14.32;;;5.30;;
29662;SDS011;16578;53.266;7.920;2023-07-31T08:21:17;8.77;;;4.75;;
29662;SDS011;16578;53.266;7.920;2023-07-31T08:23:42;10.52;;;5.63;;
29662;SDS011;16578;53.266;7.920;2023-07-31T08:26:08;11.30;;;5.82;;
29662;SDS011;16578;53.266;7.920;2023-07-31T08:28:39;10.57;;;6.05;;
29662;SDS011;16578;53.266;7.920;2023-07-31T08:31:05;9.05;;;6.47;;
29662;SDS011;16578;53.266;7.920;2023-07-31T08:33:30;12.48;;;5.80;;
29662;SDS011;16578;53.266;7.920;2023-07-31T08:35:56;12.43;;;6.43;;
29662;SDS011;16578;53.266;7.920;2023-07-31T08:38:22;10.57;;;6.82;;
29662;SDS011;16578;53.266;7.920;2023-07-31T08:40:50;10.80;;;6.38;;
29662;SDS011;16578;53.266;7.920;2023-07-31T08:43:16;12.60;;;6.60;;
29662;SDS011;16578;53.266;7.920;2023-07-31T08:45:41;11.73;;;6.38;;
29662;SDS011;16578;53.266;7.920;2023-07-31T08:48:07;12.60;;;6.65;;
29662;SDS011;16578;53.266;7.920;2023-07-31T08:50:32;14.52;;;7.28;;
29662;SDS011;16578;53.266;7.920;2023-07-31T08:52:58;12.35;;;6.32;;
29662;SDS011;16578;53.266;7.920;2023-07-31T08:55:24;10.77;;;6.05;;
29662;SDS011;16578;53.266;7.920;2023-07-31T08:57:50;10.68;;;6.30;;
29662;SDS011;16578;53.266;7.920;2023-07-31T09:00:18;7.67;;;5.20;;
29662;SDS011;16578;53.266;7.920;2023-07-31T09:02:54;7.15;;;4.78;;
29662;SDS011;16578;53.266;7.920;2023-07-31T09:05:27;6.90;;;4.80;;
29662;SDS011;16578;53.266;7.920;2023-07-31T09:07:54;8.07;;;4.50;;
29662;SDS011;16578;53.266;7.920;2023-07-31T09:10:21;6.15;;;3.90;;
29662;SDS011;16578;53.266;7.920;2023-07-31T09:12:47;9.93;;;4.00;;
29662;SDS011;16578;53.266;7.920;2023-07-31T09:15:14;5.28;;;3.83;;
29662;SDS011;16578;53.266;7.920;2023-07-31T09:17:40;5.47;;;3.38;;
29662;SDS011;16578;53.266;7.920;2023-07-31T09:20:16;6.28;;;3.83;;
29662;SDS011;16578;53.266;7.920;2023-07-31T09:22:43;6.65;;;3.78;;
29662;SDS011;16578;53.266;7.920;2023-07-31T09:25:17;5.13;;;3.83;;
29662;SDS011;16578;53.266;7.920;2023-07-31T09:27:46;4.85;;;3.50;;
29662;SDS011;16578;53.266;7.920;2023-07-31T09:30:16;7.13;;;4.00;;
29662;SDS011;16578;53.266;7.920;2023-07-31T09:32:43;5.65;;;4.00;;
29662;SDS011;16578;53.266;7.920;2023-07-31T09:37:58;4.70;;;3.95;;
29662;SDS011;16578;53.266;7.920;2023-07-31T09:40:35;4.30;;;3.40;;
29662;SDS011;16578;53.266;7.920;2023-07-31T09:43:12;4.38;;;3.58;;
29662;SDS011;16578;53.266;7.920;2023-07-31T09:45:42;5.88;;;3.53;;
29662;SDS011;16578;53.266;7.920;2023-07-31T09:48:12;6.35;;;3.67;;
29662;SDS011;16578;53.266;7.920;2023-07-31T09:50:41;7.00;;;3.92;;
29662;SDS011;16578;53.266;7.920;2023-07-31T09:53:08;5.88;;;3.80;;
29662;SDS011;16578;53.266;7.920;2023-07-31T09:55:36;5.72;;;3.63;;
29662;SDS011;16578;53.266;7.920;2023-07-31T09:58:03;4.20;;;3.40;;
29662;SDS011;16578;53.266;7.920;2023-07-31T10:00:33;5.80;;;3.60;;
29662;SDS011;16578;53.266;7.920;2023-07-31T10:02:59;4.35;;;3.33;;
29662;SDS011;16578;53.266;7.920;2023-07-31T10:05:34;3.50;;;3.20;;
29662;SDS011;16578;53.266;7.920;2023-07-31T10:08:30;5.28;;;3.25;;
29662;SDS011;16578;53.266;7.920;2023-07-31T10:10:59;4.38;;;3.40;;
29662;SDS011;16578;53.266;7.920;2023-07-31T10:13:27;3.60;;;3.03;;
29662;SDS011;16578;53.266;7.920;2023-07-31T10:16:03;3.33;;;2.53;;
29662;SDS011;16578;53.266;7.920;2023-07-31T10:18:52;4.55;;;2.60;;
29662;SDS011;16578;53.266;7.920;2023-07-31T10:21:19;2.92;;;2.63;;
29662;SDS011;16578;53.266;7.920;2023-07-31T10:23:44;3.30;;;2.88;;
29662;SDS011;16578;53.266;7.920;2023-07-31T10:26:11;3.63;;;2.25;;
29662;SDS011;16578;53.266;7.920;2023-07-31T10:28:39;3.33;;;2.60;;
29662;SDS011;16578;53.266;7.920;2023-07-31T10:31:05;5.78;;;2.95;;
29662;SDS011;16578;53.266;7.920;2023-07-31T10:33:32;4.00;;;2.60;;
29662;SDS011;16578;53.266;7.920;2023-07-31T10:38:58;4.35;;;2.90;;
29662;SDS011;16578;53.266;7.920;2023-07-31T10:41:28;3.00;;;2.67;;
29662;SDS011;16578;53.266;7.920;2023-07-31T10:44:00;3.20;;;2.33;;
29662;SDS011;16578;53.266;7.920;2023-07-31T10:46:27;2.83;;;2.10;;
29662;SDS011;16578;53.266;7.920;2023-07-31T10:48:58;3.40;;;2.60;;
29662;SDS011;16578;53.266;7.920;2023-07-31T10:51:26;2.47;;;2.08;;
29662;SDS011;16578;53.266;7.920;2023-07-31T10:54:13;3.00;;;2.05;;
29662;SDS011;16578;53.266;7.920;2023-07-31T10:56:45;2.97;;;2.08;;
29662;SDS011;16578;53.266;7.920;2023-07-31T10:59:12;5.97;;;1.98;;
29662;SDS011;16578;53.266;7.920;2023-07-31T11:05:05;2.03;;;1.58;;
29662;SDS011;16578;53.266;7.920;2023-07-31T11:07:47;2.40;;;1.40;;
29662;SDS011;16578;53.266;7.920;2023-07-31T11:10:16;1.63;;;1.33;;
29662;SDS011;16578;53.266;7.920;2023-07-31T11:12:42;3.45;;;1.10;;
29662;SDS011;16578;53.266;7.920;2023-07-31T11:15:08;1.25;;;1.17;;
29662;SDS011;16578;53.266;7.920;2023-07-31T11:17:38;2.30;;;1.40;;
29662;SDS011;16578;53.266;7.920;2023-07-31T11:20:04;1.13;;;1.02;;
29662;SDS011;16578;53.266;7.920;2023-07-31T11:22:31;0.77;;;0.77;;
29662;SDS011;16578;53.266;7.920;2023-07-31T11:24:56;1.20;;;0.95;;
29662;SDS011;16578;53.266;7.920;2023-07-31T11:27:23;0.75;;;0.75;;
29662;SDS011;16578;53.266;7.920;2023-07-31T11:29:53;0.70;;;0.70;;
29662;SDS011;16578;53.266;7.920;2023-07-31T11:32:24;0.70;;;0.70;;
29662;SDS011;16578;53.266;7.920;2023-07-31T11:34:51;1.20;;;0.60;;
29662;SDS011;16578;53.266;7.920;2023-07-31T11:37:18;0.73;;;0.73;;
29662;SDS011;16578;53.266;7.920;2023-07-31T11:39:43;0.60;;;0.60;;
29662;SDS011;16578;53.266;7.920;2023-07-31T11:42:22;0.70;;;0.70;;
29662;SDS011;16578;53.266;7.920;2023-07-31T11:44:48;2.35;;;0.80;;
29662;SDS011;16578;53.266;7.920;2023-07-31T11:47:13;0.68;;;0.68;;
29662;SDS011;16578;53.266;7.920;2023-07-31T11:49:41;2.93;;;0.70;;
29662;SDS011;16578;53.266;7.920;2023-07-31T11:52:08;0.90;;;0.70;;
29662;SDS011;16578;53.266;7.920;2023-07-31T11:54:34;0.80;;;0.80;;
29662;SDS011;16578;53.266;7.920;2023-07-31T11:56:59;1.17;;;0.73;;
29662;SDS011;16578;53.266;7.920;2023-07-31T11:59:26;0.77;;;0.77;;
29662;SDS011;16578;53.266;7.920;2023-07-31T12:01:52;0.68;;;0.60;;
29662;SDS011;16578;53.266;7.920;2023-07-31T12:04:18;1.02;;;1.02;;
29662;SDS011;16578;53.266;7.920;2023-07-31T12:06:46;1.00;;;1.00;;
29662;SDS011;16578;53.266;7.920;2023-07-31T12:09:14;0.80;;;0.80;;
29662;SDS011;16578;53.266;7.920;2023-07-31T12:11:46;1.10;;;1.10;;
29662;SDS011;16578;53.266;7.920;2023-07-31T12:14:25;1.17;;;1.17;;
29662;SDS011;16578;53.266;7.920;2023-07-31T12:16:58;1.67;;;1.10;;
29662;SDS011;16578;53.266;7.920;2023-07-31T12:19:28;0.88;;;0.88;;
29662;SDS011;16578;53.266;7.920;2023-07-31T12:21:58;1.55;;;1.10;;
29662;SDS011;16578;53.266;7.920;2023-07-31T12:24:26;1.00;;;1.00;;
29662;SDS011;16578;53.266;7.920;2023-07-31T12:26:52;1.15;;;1.05;;
29662;SDS011;16578;53.266;7.920;2023-07-31T12:29:17;1.00;;;1.00;;
29662;SDS011;16578;53.266;7.920;2023-07-31T12:31:43;1.48;;;1.38;;
29662;SDS011;16578;53.266;7.920;2023-07-31T12:34:15;1.40;;;1.30;;
29662;SDS011;16578;53.266;7.920;2023-07-31T12:36:47;1.00;;;1.00;;
29662;SDS011;16578;53.266;7.920;2023-07-31T12:39:14;0.88;;;0.88;;
29662;SDS011;16578;53.266;7.920;2023-07-31T12:41:40;1.00;;;1.00;;
29662;SDS011;16578;53.266;7.920;2023-07-31T12:44:05;1.38;;;0.80;;
29662;SDS011;16578;53.266;7.920;2023-07-31T12:46:31;1.10;;;1.10;;
29662;SDS011;16578;53.266;7.920;2023-07-31T12:48:56;1.52;;;1.40;;
29662;SDS011;16578;53.266;7.920;2023-07-31T12:51:22;3.15;;;1.13;;
29662;SDS011;16578;53.266;7.920;2023-07-31T12:53:47;1.88;;;1.23;;
29662;SDS011;16578;53.266;7.920;2023-07-31T12:56:13;1.15;;;1.05;;
29662;SDS011;16578;53.266;7.920;2023-07-31T12:58:38;1.23;;;1.13;;
29662;SDS011;16578;53.266;7.920;2023-07-31T13:01:04;2.15;;;1.05;;
29662;SDS011;16578;53.266;7.920;2023-07-31T13:03:31;1.13;;;0.80;;
29662;SDS011;16578;53.266;7.920;2023-07-31T13:05:56;1.00;;;0.88;;
29662;SDS011;16578;53.266;7.920;2023-07-31T13:08:22;1.00;;;0.77;;
29662;SDS011;16578;53.266;7.920;2023-07-31T13:10:48;0.60;;;0.60;;
29662;SDS011;16578;53.266;7.920;2023-07-31T13:13:13;2.15;;;0.60;;
29662;SDS011;16578;53.266;7.920;2023-07-31T13:15:39;0.73;;;0.73;;
29662;SDS011;16578;53.266;7.920;2023-07-31T13:18:04;0.68;;;0.57;;
29662;SDS011;16578;53.266;7.920;2023-07-31T13:20:30;0.63;;;0.63;;
29662;SDS011;16578;53.266;7.920;2023-07-31T13:22:55;0.57;;;0.57;;
29662;SDS011;16578;53.266;7.920;2023-07-31T13:25:21;0.57;;;0.40;;
29662;SDS011;16578;53.266;7.920;2023-07-31T13:27:46;0.73;;;0.50;;
29662;SDS011;16578;53.266;7.920;2023-07-31T13:30:12;0.40;;;0.40;;
29662;SDS011;16578;53.266;7.920;2023-07-31T13:32:38;0.30;;;0.30;;
29662;SDS011;16578;53.266;7.920;2023-07-31T13:35:05;0.40;;;0.40;;
29662;SDS011;16578;53.266;7.920;2023-07-31T13:37:31;0.30;;;0.30;;
29662;SDS011;16578;53.266;7.920;2023-07-31T13:39:56;0.43;;;0.43;;
29662;SDS011;16578;53.266;7.920;2023-07-31T13:42:22;2.17;;;0.50;;
29662;SDS011;16578;53.266;7.920;2023-07-31T13:44:47;1.05;;;0.70;;
29662;SDS011;16578;53.266;7.920;2023-07-31T13:47:13;0.47;;;0.47;;
29662;SDS011;16578;53.266;7.920;2023-07-31T13:49:38;0.30;;;0.30;;
29662;SDS011;16578;53.266;7.920;2023-07-31T13:52:04;3.20;;;2.90;;
29662;SDS011;16578;53.266;7.920;2023-07-31T13:54:30;3.95;;;3.65;;
29662;SDS011;16578;53.266;7.920;2023-07-31T13:56:55;2.78;;;2.33;;
29662;SDS011;16578;53.266;7.920;2023-07-31T13:59:21;1.00;;;0.90;;
29662;SDS011;16578;53.266;7.920;2023-07-31T14:01:47;0.52;;;0.50;;
29662;SDS011;16578;53.266;7.920;2023-07-31T14:04:13;0.57;;;0.57;;
29662;SDS011;16578;53.266;7.920;2023-07-31T14:06:38;0.10;;;0.10;;
29662;SDS011;16578;53.266;7.920;2023-07-31T14:09:04;0.73;;;0.40;;
29662;SDS011;16578;53.266;7.920;2023-07-31T14:11:30;0.85;;;0.30;;
29662;SDS011;16578;53.266;7.920;2023-07-31T14:13:56;0.82;;;0.25;;
29662;SDS011;16578;53.266;7.920;2023-07-31T14:16:22;0.20;;;0.20;;
29662;SDS011;16578;53.266;7.920;2023-07-31T14:18:48;0.65;;;0.20;;
29662;SDS011;16578;53.266;7.920;2023-07-31T14:21:18;1.92;;;0.40;;
29662;SDS011;16578;53.266;7.920;2023-07-31T14:23:44;0.40;;;0.40;;
29662;SDS011;16578;53.266;7.920;2023-07-31T14:26:10;1.60;;;0.22;;
29662;SDS011;16578;53.266;7.920;2023-07-31T14:28:35;1.05;;;0.57;;
29662;SDS011;16578;53.266;7.920;2023-07-31T14:31:01;0.50;;;0.50;;
29662;SDS011;16578;53.266;7.920;2023-07-31T14:33:26;1.38;;;0.73;;
29662;SDS011;16578;53.266;7.920;2023-07-31T14:35:52;0.50;;;0.47;;
29662;SDS011;16578;53.266;7.920;2023-07-31T14:38:18;1.10;;;0.57;;
29662;SDS011;16578;53.266;7.920;2023-07-31T14:40:43;0.93;;;0.88;;
29662;SDS011;16578;53.266;7.920;2023-07-31T14:43:09;1.17;;;0.90;;
29662;SDS011;16578;53.266;7.920;2023-07-31T14:45:34;0.98;;;0.80;;
29662;SDS011;16578;53.266;7.920;2023-07-31T14:48:00;1.00;;;0.80;;
29662;SDS011;16578;53.266;7.920;2023-07-31T14:50:25;0.63;;;0.63;;
29662;SDS011;16578;53.266;7.920;2023-07-31T14:52:51;0.82;;;0.82;;
29662;SDS011;16578;53.266;7.920;2023-07-31T14:55:17;1.02;;;0.88;;
29662;SDS011;16578;53.266;7.920;2023-07-31T14:57:43;1.20;;;0.77;;
29662;SDS011;16578;53.266;7.920;2023-07-31T15:00:09;1.70;;;0.70;;
29662;SDS011;16578;53.266;7.920;2023-07-31T15:02:35;1.17;;;0.90;;